THY7SP LTFM-LDZA
Flight info
| Callsign | THY7SP |
|---|---|
| Flight time | N/A |
| Altitude | 36000 |
| Route | VADEN1E/36 VADEN N618 BAKLO DCT ROVAM DCT DOLAP DCT IRDIV DCT TEBLI |
| Aircraft | A321/M-SDE3FGHIRWY/LB1 |
Departure
| Time | 2026-05-04 22:06 |
|---|---|
| Airport | İstanbul Airport (LTFM) |
Arrival
| Time | N/A |
|---|---|
| Airport | Zagreb Franjo Tuđman International Airport (LDZA) |
| Time | Latitude | Longitude | Altitude | Speed | Heading |
|---|---|---|---|---|---|
| 2026-05-04 21:41 | 41.26362 | 28.74573 | 334 ft | 0 kts | 179° |
| 2026-05-04 21:55 | 41.26384 | 28.74573 | 330 ft | 4 kts | 179° |
| 2026-05-04 21:55 | 41.26412 | 28.74573 | 329 ft | 4 kts | 181° |
| 2026-05-04 21:55 | 41.26438 | 28.74574 | 334 ft | 4 kts | 189° |
| 2026-05-04 21:55 | 41.26453 | 28.74578 | 333 ft | 0 kts | 197° |
| 2026-05-04 21:58 | 41.26441 | 28.74571 | 332 ft | 4 kts | 208° |
| 2026-05-04 21:58 | 41.26423 | 28.74526 | 334 ft | 7 kts | 263° |
| 2026-05-04 21:59 | 41.26455 | 28.74464 | 330 ft | 10 kts | 338° |
| 2026-05-04 21:59 | 41.26533 | 28.74472 | 332 ft | 10 kts | 6° |
| 2026-05-04 21:59 | 41.26608 | 28.74472 | 332 ft | 12 kts | 359° |
| 2026-05-04 21:59 | 41.26701 | 28.74470 | 333 ft | 14 kts | 359° |
| 2026-05-04 22:00 | 41.26805 | 28.74468 | 331 ft | 13 kts | 359° |
| 2026-05-04 22:00 | 41.26892 | 28.74466 | 334 ft | 13 kts | 359° |
| 2026-05-04 22:00 | 41.26961 | 28.74485 | 331 ft | 10 kts | 42° |
| 2026-05-04 22:00 | 41.26973 | 28.74581 | 332 ft | 11 kts | 89° |
| 2026-05-04 22:01 | 41.26974 | 28.74693 | 333 ft | 13 kts | 89° |
| 2026-05-04 22:01 | 41.26976 | 28.74815 | 332 ft | 14 kts | 89° |
| 2026-05-04 22:01 | 41.26977 | 28.74948 | 332 ft | 15 kts | 89° |
| 2026-05-04 22:01 | 41.26979 | 28.75089 | 333 ft | 16 kts | 89° |
| 2026-05-04 22:02 | 41.26981 | 28.75232 | 331 ft | 14 kts | 89° |
| 2026-05-04 22:02 | 41.26974 | 28.75344 | 330 ft | 12 kts | 117° |
| 2026-05-04 22:02 | 41.26906 | 28.75376 | 333 ft | 10 kts | 179° |
| 2026-05-04 22:02 | 41.26842 | 28.75377 | 330 ft | 8 kts | 179° |
| 2026-05-04 22:03 | 41.26784 | 28.75378 | 334 ft | 9 kts | 179° |
| 2026-05-04 22:03 | 41.26726 | 28.75380 | 334 ft | 8 kts | 178° |
| 2026-05-04 22:03 | 41.26669 | 28.75381 | 332 ft | 8 kts | 179° |
| 2026-05-04 22:03 | 41.26605 | 28.75382 | 334 ft | 10 kts | 179° |
| 2026-05-04 22:04 | 41.26531 | 28.75384 | 332 ft | 11 kts | 179° |
| 2026-05-04 22:04 | 41.26454 | 28.75391 | 334 ft | 11 kts | 162° |
| 2026-05-04 22:04 | 41.26424 | 28.75473 | 330 ft | 11 kts | 90° |
| 2026-05-04 22:04 | 41.26424 | 28.75584 | 330 ft | 13 kts | 89° |
| 2026-05-04 22:05 | 41.26453 | 28.75661 | 331 ft | 6 kts | 16° |
| 2026-05-04 22:05 | 41.26484 | 28.75663 | 333 ft | 1 kts | 360° |
| 2026-05-04 22:05 | 41.26513 | 28.75662 | 330 ft | 17 kts | 359° |
| 2026-05-04 22:05 | 41.26908 | 28.75654 | 334 ft | 93 kts | 359° |
| 2026-05-04 22:06 | 41.27777 | 28.75637 | 334 ft | 153 kts | 359° |
| 2026-05-04 22:06 | 41.28960 | 28.75621 | 623 ft | 176 kts | 359° |
| 2026-05-04 22:06 | 41.30163 | 28.75821 | 1326 ft | 178 kts | 27° |
| 2026-05-04 22:06 | 41.31161 | 28.76790 | 1889 ft | 182 kts | 35° |
| 2026-05-04 22:07 | 41.32280 | 28.77780 | 2142 ft | 204 kts | 31° |
| 2026-05-04 22:07 | 41.33553 | 28.78814 | 2372 ft | 227 kts | 31° |
| 2026-05-04 22:07 | 41.34990 | 28.79950 | 2709 ft | 249 kts | 31° |
| 2026-05-04 22:07 | 41.36502 | 28.81125 | 3460 ft | 253 kts | 29° |
| 2026-05-04 22:08 | 41.38072 | 28.82207 | 4267 ft | 256 kts | 16° |
| 2026-05-04 22:08 | 41.39840 | 28.82390 | 5026 ft | 259 kts | 354° |
| 2026-05-04 22:08 | 41.41639 | 28.82155 | 5852 ft | 260 kts | 355° |
| 2026-05-04 22:08 | 41.43443 | 28.81926 | 6659 ft | 262 kts | 355° |
| 2026-05-04 22:09 | 41.45238 | 28.81702 | 7413 ft | 264 kts | 355° |
| 2026-05-04 22:09 | 41.47077 | 28.81439 | 8154 ft | 268 kts | 349° |
| 2026-05-04 22:09 | 41.48803 | 28.80468 | 8854 ft | 274 kts | 325° |
| 2026-05-04 22:09 | 41.50078 | 28.78553 | 9543 ft | 282 kts | 301° |
| 2026-05-04 22:10 | 41.50970 | 28.76198 | 10223 ft | 288 kts | 299° |
| 2026-05-04 22:10 | 41.51886 | 28.73708 | 10447 ft | 310 kts | 298° |
| 2026-05-04 22:10 | 41.52870 | 28.71025 | 10594 ft | 333 kts | 298° |
| 2026-05-04 22:10 | 41.53924 | 28.68154 | 10727 ft | 355 kts | 298° |
| 2026-05-04 22:11 | 41.55028 | 28.65147 | 11142 ft | 365 kts | 298° |
| 2026-05-04 22:11 | 41.56152 | 28.62080 | 11747 ft | 370 kts | 298° |
| 2026-05-04 22:11 | 41.57275 | 28.59019 | 12352 ft | 374 kts | 298° |
| 2026-05-04 22:11 | 41.58424 | 28.55881 | 12970 ft | 378 kts | 298° |
| 2026-05-04 22:12 | 41.59584 | 28.52711 | 13588 ft | 381 kts | 298° |
| 2026-05-04 22:12 | 41.60755 | 28.49517 | 14199 ft | 385 kts | 298° |
| 2026-05-04 22:12 | 41.61938 | 28.46288 | 14807 ft | 388 kts | 299° |
| 2026-05-04 22:12 | 41.63130 | 28.43026 | 15403 ft | 392 kts | 299° |
| 2026-05-04 22:13 | 41.64332 | 28.39738 | 15994 ft | 396 kts | 299° |
| 2026-05-04 22:13 | 41.65544 | 28.36420 | 16569 ft | 399 kts | 299° |
| 2026-05-04 22:13 | 41.66766 | 28.33070 | 17133 ft | 403 kts | 299° |
| 2026-05-04 22:13 | 41.67998 | 28.29689 | 17681 ft | 406 kts | 299° |
| 2026-05-04 22:14 | 41.69238 | 28.26274 | 18220 ft | 410 kts | 299° |
| 2026-05-04 22:14 | 41.70473 | 28.22874 | 18732 ft | 413 kts | 299° |
| 2026-05-04 22:14 | 41.71733 | 28.19405 | 19236 ft | 416 kts | 299° |
| 2026-05-04 22:14 | 41.73001 | 28.15904 | 19728 ft | 419 kts | 299° |
| 2026-05-04 22:15 | 41.74275 | 28.12377 | 20210 ft | 422 kts | 299° |
| 2026-05-04 22:15 | 41.75554 | 28.08825 | 20681 ft | 425 kts | 299° |
| 2026-05-04 22:15 | 41.76842 | 28.05249 | 21128 ft | 428 kts | 298° |
| 2026-05-04 22:15 | 41.78139 | 28.01652 | 21574 ft | 430 kts | 299° |
| 2026-05-04 22:16 | 41.79445 | 27.98035 | 22007 ft | 433 kts | 299° |
| 2026-05-04 22:16 | 41.80756 | 27.94392 | 22428 ft | 435 kts | 298° |
| 2026-05-04 22:16 | 41.82071 | 27.90724 | 22839 ft | 438 kts | 298° |
| 2026-05-04 22:16 | 41.83376 | 27.87078 | 23235 ft | 440 kts | 298° |
| 2026-05-04 22:17 | 41.84704 | 27.83368 | 23645 ft | 443 kts | 298° |
| 2026-05-04 22:17 | 41.86040 | 27.79635 | 24028 ft | 445 kts | 298° |
| 2026-05-04 22:17 | 41.87379 | 27.75884 | 24407 ft | 447 kts | 298° |
| 2026-05-04 22:17 | 41.88269 | 27.73384 | 24656 ft | 449 kts | 298° |
| 2026-05-04 22:18 | 41.89635 | 27.69548 | 25035 ft | 451 kts | 298° |
| 2026-05-04 22:18 | 41.90989 | 27.65749 | 25396 ft | 453 kts | 298° |
| 2026-05-04 22:18 | 41.92331 | 27.61982 | 25748 ft | 455 kts | 298° |
| 2026-05-04 22:18 | 41.93696 | 27.58142 | 26097 ft | 456 kts | 298° |
| 2026-05-04 22:19 | 41.95064 | 27.54280 | 26441 ft | 458 kts | 298° |
| 2026-05-04 22:19 | 41.96433 | 27.50408 | 26782 ft | 460 kts | 298° |
| 2026-05-04 22:19 | 41.97806 | 27.46514 | 27129 ft | 462 kts | 298° |
| 2026-05-04 22:19 | 41.99186 | 27.42602 | 27459 ft | 464 kts | 298° |
| 2026-05-04 22:20 | 42.00569 | 27.38679 | 27779 ft | 465 kts | 298° |
| 2026-05-04 22:20 | 42.01952 | 27.34748 | 28208 ft | 464 kts | 298° |